Hauptseite
METAR-TAF:

METAR-TAF

Flughäfen :

Flughafen La Rochelle

La Rochelle, Frankreich

Breite: 46-10-45N, Länge: 1-11-43W, Höhe: 23 m

Beobachtung

Neuester Wetterbericht von vor 37 Minuten, um 18:00 UTC
Wind 9 kt aus West/Nordwest
Temperatur 27°C
Luftfeuchtigkeit 39%
Luftdruck 1014 hPa
Sichtweite 10 km oder mehr
keine Wolken unter 1500 m und keine Kumulonimbus oder Gewitterwolken

METAR: LFBH 061800Z AUTO 30009KT CAVOK 27/12 Q1014 NOSIG

Zeit: 20:37 (18:37 UTC)

Prognose

Neuester Wetterbericht von vor 1 Stunde und 37 Minuten, um 17:00 UTC
Gültige Prognose vom 06 um 18 UTC bis 07 um 18 UTC
Wind 8 kt aus West/Nordwest
Sichtweite 10 km oder mehr
keine Wolken unter 1500 m und keine Kumulonimbus oder Gewitterwolken
Übergehend zu
vom 07 um 12 UTC bis 07 um 14 UTC
Wind 10 kt aus Südwest

TAF: LFBH 061700Z 0618/0718 30008KT CAVOK BECMG 0712/0714 23010KT

Wetterbeobachtungen und Prognosen von mehr als 4000 Flughäfen (METAR und TAF Bericht).

Die verfügbaren Stationen werden durch gelbe und rote Markierungen auf der Karte dargestellt.

Führen Sie die Maus auf sie, um den Namen der Station zu sehen.

Darauf klicken, um die Beobachtung von Wetterbeobachtungen und Prognosen zu sehen.

Um die Karte zu ändern : klicken Sie auf den grünen Tasten mit einem schwarzen Kreuz Zum Vergrößern, auf den grünen Button mit einem Gedankenstrich zu verkleinern, oder auf die grünen Pfeile für benachbarte Karten.


METAR-TAF: